sensor_id;sensor_type;location;lat;lon;timestamp;pressure;altitude;pressure_sealevel;temperature;humidity
13027;BME280;6580;42.680;23.324;2023-05-09T00:02:30;95533.41;;;14.92;100.00
13027;BME280;6580;42.680;23.324;2023-05-09T00:05:19;95532.97;;;14.80;100.00
13027;BME280;6580;42.680;23.324;2023-05-09T00:08:04;95537.72;;;14.93;100.00
13027;BME280;6580;42.680;23.324;2023-05-09T00:10:58;95535.56;;;14.88;100.00
13027;BME280;6580;42.680;23.324;2023-05-09T00:13:46;95528.41;;;15.11;100.00
13027;BME280;6580;42.680;23.324;2023-05-09T00:16:32;95530.19;;;15.27;100.00
13027;BME280;6580;42.680;23.324;2023-05-09T00:19:17;95530.84;;;15.28;100.00
13027;BME280;6580;42.680;23.324;2023-05-09T00:22:08;95536.78;;;15.38;100.00
13027;BME280;6580;42.680;23.324;2023-05-09T00:24:56;95526.47;;;15.27;100.00
13027;BME280;6580;42.680;23.324;2023-05-09T00:27:44;95524.47;;;15.22;100.00
13027;BME280;6580;42.680;23.324;2023-05-09T00:30:29;95522.03;;;15.12;100.00
13027;BME280;6580;42.680;23.324;2023-05-09T00:33:17;95522.59;;;15.22;100.00
13027;BME280;6580;42.680;23.324;2023-05-09T00:36:06;95516.78;;;15.19;100.00
13027;BME280;6580;42.680;23.324;2023-05-09T00:38:52;95521.03;;;15.35;100.00
13027;BME280;6580;42.680;23.324;2023-05-09T00:41:38;95525.75;;;15.33;100.00
13027;BME280;6580;42.680;23.324;2023-05-09T00:44:24;95518.75;;;15.24;100.00
13027;BME280;6580;42.680;23.324;2023-05-09T00:47:10;95524.16;;;15.17;100.00
13027;BME280;6580;42.680;23.324;2023-05-09T00:49:57;95525.06;;;15.09;100.00
13027;BME280;6580;42.680;23.324;2023-05-09T00:52:43;95518.78;;;14.94;100.00
13027;BME280;6580;42.680;23.324;2023-05-09T00:55:28;95521.56;;;15.09;100.00
13027;BME280;6580;42.680;23.324;2023-05-09T00:58:15;95522.84;;;15.13;100.00
13027;BME280;6580;42.680;23.324;2023-05-09T01:01:03;95522.84;;;15.13;100.00
13027;BME280;6580;42.680;23.324;2023-05-09T01:03:50;95524.28;;;15.01;100.00
13027;BME280;6580;42.680;23.324;2023-05-09T01:06:44;95519.81;;;14.93;100.00
13027;BME280;6580;42.680;23.324;2023-05-09T01:09:37;95521.91;;;15.06;100.00
13027;BME280;6580;42.680;23.324;2023-05-09T01:12:33;95512.56;;;14.94;100.00
13027;BME280;6580;42.680;23.324;2023-05-09T01:15:27;95516.66;;;14.90;100.00
13027;BME280;6580;42.680;23.324;2023-05-09T01:18:24;95522.72;;;14.76;100.00
13027;BME280;6580;42.680;23.324;2023-05-09T01:21:14;95517.75;;;14.73;100.00
13027;BME280;6580;42.680;23.324;2023-05-09T01:27:38;95508.47;;;14.53;100.00
13027;BME280;6580;42.680;23.324;2023-05-09T01:30:30;95517.78;;;14.65;100.00
13027;BME280;6580;42.680;23.324;2023-05-09T01:33:18;95501.22;;;14.61;100.00
13027;BME280;6580;42.680;23.324;2023-05-09T01:36:11;95518.53;;;14.51;100.00
13027;BME280;6580;42.680;23.324;2023-05-09T01:38:58;95522.69;;;14.53;100.00
13027;BME280;6580;42.680;23.324;2023-05-09T01:41:47;95520.47;;;14.57;100.00
13027;BME280;6580;42.680;23.324;2023-05-09T01:44:36;95511.81;;;14.55;100.00
13027;BME280;6580;42.680;23.324;2023-05-09T01:47:26;95514.09;;;14.66;100.00
13027;BME280;6580;42.680;23.324;2023-05-09T01:50:16;95522.44;;;14.71;100.00
13027;BME280;6580;42.680;23.324;2023-05-09T01:53:06;95533.66;;;14.74;100.00
13027;BME280;6580;42.680;23.324;2023-05-09T01:55:53;95532.44;;;14.77;100.00
13027;BME280;6580;42.680;23.324;2023-05-09T01:58:43;95531.63;;;14.76;100.00
13027;BME280;6580;42.680;23.324;2023-05-09T02:01:33;95525.50;;;14.60;100.00
13027;BME280;6580;42.680;23.324;2023-05-09T02:04:31;95529.19;;;14.59;100.00
13027;BME280;6580;42.680;23.324;2023-05-09T02:07:17;95530.84;;;14.68;100.00
13027;BME280;6580;42.680;23.324;2023-05-09T02:10:06;95527.91;;;14.55;100.00
13027;BME280;6580;42.680;23.324;2023-05-09T02:12:54;95528.69;;;14.63;100.00
13027;BME280;6580;42.680;23.324;2023-05-09T02:15:41;95529.06;;;14.52;100.00
13027;BME280;6580;42.680;23.324;2023-05-09T02:18:27;95526.94;;;14.40;100.00
13027;BME280;6580;42.680;23.324;2023-05-09T02:21:17;95524.91;;;14.42;100.00
13027;BME280;6580;42.680;23.324;2023-05-09T02:24:05;95523.22;;;14.49;100.00
13027;BME280;6580;42.680;23.324;2023-05-09T02:27:00;95519.19;;;14.53;100.00
13027;BME280;6580;42.680;23.324;2023-05-09T02:29:50;95513.69;;;14.46;100.00
13027;BME280;6580;42.680;23.324;2023-05-09T02:32:38;95525.84;;;14.57;100.00
13027;BME280;6580;42.680;23.324;2023-05-09T02:35:26;95525.84;;;14.57;100.00
13027;BME280;6580;42.680;23.324;2023-05-09T02:38:21;95511.94;;;14.61;100.00
13027;BME280;6580;42.680;23.324;2023-05-09T02:41:12;95527.47;;;14.74;100.00
13027;BME280;6580;42.680;23.324;2023-05-09T02:43:58;95523.97;;;14.65;100.00
13027;BME280;6580;42.680;23.324;2023-05-09T02:46:43;95521.16;;;14.59;100.00
13027;BME280;6580;42.680;23.324;2023-05-09T02:49:30;95527.97;;;14.69;100.00
13027;BME280;6580;42.680;23.324;2023-05-09T02:52:16;95522.13;;;14.66;100.00
13027;BME280;6580;42.680;23.324;2023-05-09T02:55:04;95529.19;;;14.59;100.00
13027;BME280;6580;42.680;23.324;2023-05-09T02:57:51;95525.38;;;14.53;100.00
13027;BME280;6580;42.680;23.324;2023-05-09T03:00:36;95521.81;;;14.61;100.00
13027;BME280;6580;42.680;23.324;2023-05-09T03:03:27;95530.09;;;14.82;100.00
13027;BME280;6580;42.680;23.324;2023-05-09T03:06:13;95528.78;;;14.39;100.00
13027;BME280;6580;42.680;23.324;2023-05-09T03:08:59;95536.88;;;14.70;100.00
13027;BME280;6580;42.680;23.324;2023-05-09T03:11:48;95540.22;;;14.72;100.00
13027;BME280;6580;42.680;23.324;2023-05-09T03:14:35;95541.44;;;14.61;100.00
13027;BME280;6580;42.680;23.324;2023-05-09T03:17:21;95543.94;;;14.63;100.00
13027;BME280;6580;42.680;23.324;2023-05-09T03:20:10;95546.25;;;14.66;100.00
13027;BME280;6580;42.680;23.324;2023-05-09T03:22:56;95556.34;;;14.56;100.00
13027;BME280;6580;42.680;23.324;2023-05-09T03:25:42;95567.44;;;14.53;100.00
13027;BME280;6580;42.680;23.324;2023-05-09T03:28:31;95570.13;;;14.45;100.00
13027;BME280;6580;42.680;23.324;2023-05-09T03:31:19;95572.44;;;14.56;100.00
13027;BME280;6580;42.680;23.324;2023-05-09T03:34:05;95572.78;;;14.53;100.00
13027;BME280;6580;42.680;23.324;2023-05-09T03:36:57;95581.06;;;14.35;100.00
13027;BME280;6580;42.680;23.324;2023-05-09T03:39:46;95572.38;;;14.25;100.00
13027;BME280;6580;42.680;23.324;2023-05-09T03:42:32;95580.94;;;14.13;100.00
13027;BME280;6580;42.680;23.324;2023-05-09T03:45:20;95584.28;;;14.15;100.00
13027;BME280;6580;42.680;23.324;2023-05-09T03:48:06;95581.91;;;14.20;100.00
13027;BME280;6580;42.680;23.324;2023-05-09T03:50:54;95594.00;;;14.16;100.00
13027;BME280;6580;42.680;23.324;2023-05-09T03:53:40;95586.97;;;13.99;100.00
13027;BME280;6580;42.680;23.324;2023-05-09T03:56:28;95584.97;;;14.17;100.00
13027;BME280;6580;42.680;23.324;2023-05-09T03:59:15;95593.81;;;14.18;100.00
13027;BME280;6580;42.680;23.324;2023-05-09T04:02:03;95579.91;;;14.06;100.00
13027;BME280;6580;42.680;23.324;2023-05-09T04:04:51;95587.13;;;14.14;100.00
13027;BME280;6580;42.680;23.324;2023-05-09T04:07:38;95588.47;;;14.10;100.00
13027;BME280;6580;42.680;23.324;2023-05-09T04:10:26;95582.94;;;14.11;100.00
13027;BME280;6580;42.680;23.324;2023-05-09T04:13:13;95579.59;;;14.01;100.00
13027;BME280;6580;42.680;23.324;2023-05-09T04:15:58;95584.25;;;14.07;100.00
13027;BME280;6580;42.680;23.324;2023-05-09T04:18:48;95587.59;;;14.25;100.00
13027;BME280;6580;42.680;23.324;2023-05-09T04:21:34;95586.94;;;14.31;100.00
13027;BME280;6580;42.680;23.324;2023-05-09T04:24:21;95590.91;;;14.43;100.00
13027;BME280;6580;42.680;23.324;2023-05-09T04:27:07;95588.22;;;14.43;100.00
13027;BME280;6580;42.680;23.324;2023-05-09T04:29:54;95586.47;;;14.66;100.00
13027;BME280;6580;42.680;23.324;2023-05-09T04:32:42;95586.09;;;14.77;100.00
13027;BME280;6580;42.680;23.324;2023-05-09T04:35:31;95581.50;;;14.93;100.00
13027;BME280;6580;42.680;23.324;2023-05-09T04:38:21;95593.31;;;15.07;100.00
13027;BME280;6580;42.680;23.324;2023-05-09T04:41:09;95594.91;;;15.23;100.00
13027;BME280;6580;42.680;23.324;2023-05-09T04:43:59;95591.53;;;15.29;100.00
13027;BME280;6580;42.680;23.324;2023-05-09T04:46:46;95588.38;;;15.48;100.00
13027;BME280;6580;42.680;23.324;2023-05-09T04:49:33;95587.47;;;15.56;100.00
13027;BME280;6580;42.680;23.324;2023-05-09T04:52:22;95591.59;;;15.66;100.00
13027;BME280;6580;42.680;23.324;2023-05-09T04:55:09;95589.69;;;15.52;100.00
13027;BME280;6580;42.680;23.324;2023-05-09T04:57:58;95587.44;;;15.41;100.00
13027;BME280;6580;42.680;23.324;2023-05-09T05:00:43;95591.47;;;15.60;100.00
13027;BME280;6580;42.680;23.324;2023-05-09T05:03:29;95591.72;;;15.50;100.00
13027;BME280;6580;42.680;23.324;2023-05-09T05:06:15;95583.25;;;15.39;100.00
13027;BME280;6580;42.680;23.324;2023-05-09T05:09:04;95581.47;;;15.23;100.00
13027;BME280;6580;42.680;23.324;2023-05-09T05:11:53;95583.06;;;15.40;100.00
13027;BME280;6580;42.680;23.324;2023-05-09T05:14:39;95588.41;;;15.85;100.00
13027;BME280;6580;42.680;23.324;2023-05-09T05:17:25;95582.50;;;16.27;100.00
13027;BME280;6580;42.680;23.324;2023-05-09T05:20:12;95581.66;;;16.26;100.00
13027;BME280;6580;42.680;23.324;2023-05-09T05:22:58;95576.88;;;15.99;100.00
13027;BME280;6580;42.680;23.324;2023-05-09T05:25:45;95581.50;;;16.05;100.00
13027;BME280;6580;42.680;23.324;2023-05-09T05:28:30;95589.50;;;15.76;100.00
13027;BME280;6580;42.680;23.324;2023-05-09T05:31:17;95596.97;;;15.89;99.84
13027;BME280;6580;42.680;23.324;2023-05-09T05:34:06;95589.31;;;16.00;100.00
13027;BME280;6580;42.680;23.324;2023-05-09T05:36:51;95594.88;;;15.76;100.00
13027;BME280;6580;42.680;23.324;2023-05-09T05:39:37;95595.00;;;15.83;100.00
13027;BME280;6580;42.680;23.324;2023-05-09T05:42:30;95592.84;;;16.15;98.24
13027;BME280;6580;42.680;23.324;2023-05-09T05:45:19;95588.88;;;16.26;97.68
13027;BME280;6580;42.680;23.324;2023-05-09T05:48:04;95601.44;;;16.11;96.11
13027;BME280;6580;42.680;23.324;2023-05-09T05:50:52;95598.22;;;16.15;96.17
13027;BME280;6580;42.680;23.324;2023-05-09T05:53:38;95581.97;;;16.31;95.92
13027;BME280;6580;42.680;23.324;2023-05-09T05:56:24;95592.53;;;17.05;93.04
13027;BME280;6580;42.680;23.324;2023-05-09T05:59:11;95583.69;;;17.11;89.03
13027;BME280;6580;42.680;23.324;2023-05-09T06:01:58;95588.84;;;16.62;91.91
13027;BME280;6580;42.680;23.324;2023-05-09T06:04:47;95589.94;;;16.97;91.79
13027;BME280;6580;42.680;23.324;2023-05-09T06:07:34;95584.03;;;17.22;90.31
13027;BME280;6580;42.680;23.324;2023-05-09T06:10:20;95594.34;;;17.19;87.98
13027;BME280;6580;42.680;23.324;2023-05-09T06:13:07;95589.03;;;17.25;85.96
13027;BME280;6580;42.680;23.324;2023-05-09T06:15:55;95586.88;;;17.00;83.17
13027;BME280;6580;42.680;23.324;2023-05-09T06:18:41;95598.66;;;16.41;83.56
13027;BME280;6580;42.680;23.324;2023-05-09T06:21:27;95588.50;;;16.14;89.69
13027;BME280;6580;42.680;23.324;2023-05-09T06:24:13;95589.56;;;16.05;89.48
13027;BME280;6580;42.680;23.324;2023-05-09T06:26:59;95588.84;;;16.48;89.04
13027;BME280;6580;42.680;23.324;2023-05-09T06:29:45;95589.69;;;16.92;84.45
13027;BME280;6580;42.680;23.324;2023-05-09T06:32:32;95590.78;;;16.97;83.37
13027;BME280;6580;42.680;23.324;2023-05-09T06:35:18;95592.00;;;16.37;83.47
13027;BME280;6580;42.680;23.324;2023-05-09T06:38:03;95600.16;;;16.07;87.71
13027;BME280;6580;42.680;23.324;2023-05-09T06:40:50;95601.28;;;16.12;88.44
13027;BME280;6580;42.680;23.324;2023-05-09T06:43:35;95594.19;;;16.33;88.20
13027;BME280;6580;42.680;23.324;2023-05-09T06:46:25;95596.25;;;16.46;86.63
13027;BME280;6580;42.680;23.324;2023-05-09T06:49:12;95595.09;;;16.26;89.85
13027;BME280;6580;42.680;23.324;2023-05-09T06:51:57;95590.31;;;16.50;88.50
13027;BME280;6580;42.680;23.324;2023-05-09T06:54:43;95591.81;;;16.67;86.13
13027;BME280;6580;42.680;23.324;2023-05-09T06:57:29;95589.03;;;16.61;84.07
13027;BME280;6580;42.680;23.324;2023-05-09T07:00:18;95588.56;;;16.57;85.85
13027;BME280;6580;42.680;23.324;2023-05-09T07:03:03;95592.16;;;16.93;84.95
13027;BME280;6580;42.680;23.324;2023-05-09T07:05:52;95583.22;;;17.22;82.08
13027;BME280;6580;42.680;23.324;2023-05-09T07:08:40;95582.94;;;17.17;82.18
13027;BME280;6580;42.680;23.324;2023-05-09T07:11:25;95586.22;;;17.47;81.06
13027;BME280;6580;42.680;23.324;2023-05-09T07:14:11;95582.69;;;16.97;80.94
13027;BME280;6580;42.680;23.324;2023-05-09T07:16:56;95581.78;;;16.76;82.67
13027;BME280;6580;42.680;23.324;2023-05-09T07:19:42;95590.41;;;16.71;82.57
13027;BME280;6580;42.680;23.324;2023-05-09T07:22:29;95587.91;;;16.70;83.20
13027;BME280;6580;42.680;23.324;2023-05-09T07:25:14;95592.66;;;16.82;81.10
13027;BME280;6580;42.680;23.324;2023-05-09T07:27:59;95588.63;;;16.93;81.49
13027;BME280;6580;42.680;23.324;2023-05-09T07:30:45;95589.03;;;16.75;80.84
13027;BME280;6580;42.680;23.324;2023-05-09T07:33:31;95590.59;;;16.55;81.92
13027;BME280;6580;42.680;23.324;2023-05-09T07:36:16;95591.53;;;16.62;81.56
13027;BME280;6580;42.680;23.324;2023-05-09T07:39:05;95596.63;;;16.43;82.05
13027;BME280;6580;42.680;23.324;2023-05-09T07:41:52;95603.03;;;16.56;82.49
13027;BME280;6580;42.680;23.324;2023-05-09T07:44:38;95597.84;;;16.84;81.26
13027;BME280;6580;42.680;23.324;2023-05-09T07:47:23;95594.13;;;16.99;78.49
13027;BME280;6580;42.680;23.324;2023-05-09T07:50:12;95598.47;;;16.86;78.48
13027;BME280;6580;42.680;23.324;2023-05-09T07:53:01;95587.72;;;17.00;80.01
13027;BME280;6580;42.680;23.324;2023-05-09T07:55:48;95594.28;;;17.12;79.88
13027;BME280;6580;42.680;23.324;2023-05-09T07:58:34;95591.97;;;16.95;79.92
13027;BME280;6580;42.680;23.324;2023-05-09T08:01:21;95587.06;;;16.98;78.72
13027;BME280;6580;42.680;23.324;2023-05-09T08:04:06;95581.06;;;16.53;80.45
13027;BME280;6580;42.680;23.324;2023-05-09T08:06:52;95575.81;;;16.95;80.06
13027;BME280;6580;42.680;23.324;2023-05-09T08:09:38;95580.16;;;17.10;78.96
13027;BME280;6580;42.680;23.324;2023-05-09T08:12:25;95583.03;;;17.79;74.77
13027;BME280;6580;42.680;23.324;2023-05-09T08:15:11;95584.25;;;17.77;75.04
13027;BME280;6580;42.680;23.324;2023-05-09T08:17:56;95564.97;;;17.38;75.35
13027;BME280;6580;42.680;23.324;2023-05-09T08:20:43;95584.03;;;17.36;76.44
13027;BME280;6580;42.680;23.324;2023-05-09T08:23:30;95584.88;;;17.37;76.76
13027;BME280;6580;42.680;23.324;2023-05-09T08:26:17;95579.44;;;17.72;75.78
13027;BME280;6580;42.680;23.324;2023-05-09T08:29:03;95575.91;;;18.41;70.94
13027;BME280;6580;42.680;23.324;2023-05-09T08:31:49;95580.66;;;19.53;65.68
13027;BME280;6580;42.680;23.324;2023-05-09T08:34:35;95577.53;;;19.56;65.12
13027;BME280;6580;42.680;23.324;2023-05-09T08:37:20;95573.66;;;19.19;64.58
13027;BME280;6580;42.680;23.324;2023-05-09T08:40:07;95568.56;;;19.49;63.17
13027;BME280;6580;42.680;23.324;2023-05-09T08:42:53;95573.31;;;20.33;60.48
13027;BME280;6580;42.680;23.324;2023-05-09T08:45:45;95571.88;;;19.39;61.07
13027;BME280;6580;42.680;23.324;2023-05-09T08:48:33;95569.69;;;18.74;64.71
13027;BME280;6580;42.680;23.324;2023-05-09T08:51:20;95570.59;;;18.54;67.00
13027;BME280;6580;42.680;23.324;2023-05-09T08:54:06;95571.59;;;17.98;70.21
13027;BME280;6580;42.680;23.324;2023-05-09T08:56:52;95572.19;;;18.21;68.51
13027;BME280;6580;42.680;23.324;2023-05-09T08:59:39;95579.75;;;17.63;71.02
13027;BME280;6580;42.680;23.324;2023-05-09T09:02:27;95573.63;;;17.33;71.98
13027;BME280;6580;42.680;23.324;2023-05-09T09:05:15;95574.34;;;17.07;74.07
13027;BME280;6580;42.680;23.324;2023-05-09T09:08:02;95575.59;;;17.11;74.87
13027;BME280;6580;42.680;23.324;2023-05-09T09:10:48;95569.03;;;17.13;75.87
13027;BME280;6580;42.680;23.324;2023-05-09T09:13:36;95575.03;;;18.34;69.83
13027;BME280;6580;42.680;23.324;2023-05-09T09:16:24;95573.66;;;17.54;70.33
13027;BME280;6580;42.680;23.324;2023-05-09T09:19:15;95578.06;;;17.41;72.21
13027;BME280;6580;42.680;23.324;2023-05-09T09:22:03;95575.94;;;17.01;72.82
13027;BME280;6580;42.680;23.324;2023-05-09T09:24:49;95576.50;;;17.46;71.50
13027;BME280;6580;42.680;23.324;2023-05-09T09:27:35;95570.06;;;17.68;69.76
13027;BME280;6580;42.680;23.324;2023-05-09T09:30:22;95568.41;;;17.46;73.65
13027;BME280;6580;42.680;23.324;2023-05-09T09:33:18;95570.19;;;17.39;72.54
13027;BME280;6580;42.680;23.324;2023-05-09T09:36:05;95574.69;;;17.53;73.74
13027;BME280;6580;42.680;23.324;2023-05-09T09:38:55;95583.81;;;17.03;75.16
13027;BME280;6580;42.680;23.324;2023-05-09T09:41:43;95571.34;;;17.93;71.75
13027;BME280;6580;42.680;23.324;2023-05-09T09:44:29;95588.81;;;17.76;69.50
13027;BME280;6580;42.680;23.324;2023-05-09T09:47:16;95568.78;;;17.29;74.81
13027;BME280;6580;42.680;23.324;2023-05-09T09:50:09;95581.75;;;17.05;76.04
13027;BME280;6580;42.680;23.324;2023-05-09T09:52:56;95582.41;;;16.92;77.47
13027;BME280;6580;42.680;23.324;2023-05-09T09:55:48;95584.63;;;17.03;77.36
13027;BME280;6580;42.680;23.324;2023-05-09T09:58:35;95592.69;;;17.18;75.35
13027;BME280;6580;42.680;23.324;2023-05-09T10:01:20;95593.00;;;16.94;77.52
13027;BME280;6580;42.680;23.324;2023-05-09T10:04:07;95573.66;;;17.19;76.71
13027;BME280;6580;42.680;23.324;2023-05-09T10:06:54;95583.28;;;17.28;75.13
13027;BME280;6580;42.680;23.324;2023-05-09T10:09:42;95569.69;;;17.01;77.17
13027;BME280;6580;42.680;23.324;2023-05-09T10:12:28;95581.22;;;17.65;75.08
13027;BME280;6580;42.680;23.324;2023-05-09T10:15:17;95559.59;;;17.59;72.37
13027;BME280;6580;42.680;23.324;2023-05-09T10:18:05;95559.41;;;17.39;73.24
13027;BME280;6580;42.680;23.324;2023-05-09T10:20:53;95567.53;;;17.11;76.87
13027;BME280;6580;42.680;23.324;2023-05-09T10:23:41;95572.28;;;16.22;83.44
13027;BME280;6580;42.680;23.324;2023-05-09T10:26:37;95576.09;;;17.00;79.96
13027;BME280;6580;42.680;23.324;2023-05-09T10:29:31;95574.75;;;17.60;74.90
13027;BME280;6580;42.680;23.324;2023-05-09T10:32:22;95562.22;;;17.94;73.09
13027;BME280;6580;42.680;23.324;2023-05-09T10:35:17;95552.69;;;18.19;70.94
13027;BME280;6580;42.680;23.324;2023-05-09T10:38:08;95552.81;;;18.32;71.45
13027;BME280;6580;42.680;23.324;2023-05-09T10:40:56;95566.38;;;17.97;74.10
13027;BME280;6580;42.680;23.324;2023-05-09T10:43:44;95564.66;;;17.68;73.74
13027;BME280;6580;42.680;23.324;2023-05-09T10:46:30;95557.88;;;17.51;76.78
13027;BME280;6580;42.680;23.324;2023-05-09T10:49:17;95559.81;;;17.57;75.11
13027;BME280;6580;42.680;23.324;2023-05-09T10:52:03;95559.16;;;17.55;72.97
13027;BME280;6580;42.680;23.324;2023-05-09T10:54:57;95567.59;;;17.32;76.91
13027;BME280;6580;42.680;23.324;2023-05-09T10:57:51;95566.38;;;17.97;73.59
13027;BME280;6580;42.680;23.324;2023-05-09T11:00:41;95569.28;;;17.53;72.31
13027;BME280;6580;42.680;23.324;2023-05-09T11:03:28;95560.81;;;17.98;72.15
13027;BME280;6580;42.680;23.324;2023-05-09T11:06:39;95574.28;;;18.19;70.09
13027;BME280;6580;42.680;23.324;2023-05-09T11:09:29;95561.88;;;17.76;71.37
13027;BME280;6580;42.680;23.324;2023-05-09T11:12:19;95562.41;;;17.93;73.89
13027;BME280;6580;42.680;23.324;2023-05-09T11:15:06;95561.75;;;18.12;73.96
13027;BME280;6580;42.680;23.324;2023-05-09T11:18:05;95566.78;;;17.94;73.21
13027;BME280;6580;42.680;23.324;2023-05-09T11:20:50;95567.25;;;17.97;71.55
13027;BME280;6580;42.680;23.324;2023-05-09T11:23:41;95560.03;;;18.59;68.50
13027;BME280;6580;42.680;23.324;2023-05-09T11:26:28;95569.16;;;18.58;68.25
13027;BME280;6580;42.680;23.324;2023-05-09T11:29:19;95564.47;;;19.07;66.91
13027;BME280;6580;42.680;23.324;2023-05-09T11:32:08;95569.75;;;18.87;67.18
13027;BME280;6580;42.680;23.324;2023-05-09T11:35:09;95579.00;;;19.06;65.85
13027;BME280;6580;42.680;23.324;2023-05-09T11:37:59;95570.09;;;18.17;68.88
13027;BME280;6580;42.680;23.324;2023-05-09T11:40:46;95567.53;;;18.09;69.83
13027;BME280;6580;42.680;23.324;2023-05-09T11:43:33;95567.06;;;18.53;67.77
13027;BME280;6580;42.680;23.324;2023-05-09T11:46:19;95569.78;;;18.26;69.20
13027;BME280;6580;42.680;23.324;2023-05-09T11:49:07;95571.78;;;17.76;71.90
13027;BME280;6580;42.680;23.324;2023-05-09T11:51:58;95566.22;;;17.56;74.51
13027;BME280;6580;42.680;23.324;2023-05-09T11:54:44;95567.25;;;17.76;72.94
13027;BME280;6580;42.680;23.324;2023-05-09T11:57:29;95550.81;;;17.92;72.06
13027;BME280;6580;42.680;23.324;2023-05-09T12:00:17;95554.22;;;18.28;69.91
13027;BME280;6580;42.680;23.324;2023-05-09T12:03:04;95552.44;;;18.14;70.10
13027;BME280;6580;42.680;23.324;2023-05-09T12:05:53;95557.13;;;17.57;71.97
13027;BME280;6580;42.680;23.324;2023-05-09T12:08:41;95559.41;;;17.39;74.23
13027;BME280;6580;42.680;23.324;2023-05-09T12:11:28;95558.19;;;17.07;76.10
13027;BME280;6580;42.680;23.324;2023-05-09T12:14:25;95571.75;;;16.99;75.62
13027;BME280;6580;42.680;23.324;2023-05-09T12:17:11;95568.72;;;16.73;77.76
13027;BME280;6580;42.680;23.324;2023-05-09T12:19:57;95557.56;;;16.76;80.10
13027;BME280;6580;42.680;23.324;2023-05-09T12:22:51;95567.50;;;16.75;79.68
13027;BME280;6580;42.680;23.324;2023-05-09T12:25:46;95564.06;;;16.52;80.82
13027;BME280;6580;42.680;23.324;2023-05-09T12:28:35;95578.09;;;16.62;81.79
13027;BME280;6580;42.680;23.324;2023-05-09T12:31:21;95569.91;;;16.70;80.68
13027;BME280;6580;42.680;23.324;2023-05-09T12:34:08;95559.97;;;16.27;82.90
13027;BME280;6580;42.680;23.324;2023-05-09T12:36:53;95569.09;;;16.04;85.42
13027;BME280;6580;42.680;23.324;2023-05-09T12:39:41;95573.66;;;16.04;85.87
13027;BME280;6580;42.680;23.324;2023-05-09T12:42:33;95574.06;;;15.78;88.22
13027;BME280;6580;42.680;23.324;2023-05-09T12:45:18;95568.19;;;15.75;88.58
13027;BME280;6580;42.680;23.324;2023-05-09T12:48:05;95564.66;;;16.11;87.48
13027;BME280;6580;42.680;23.324;2023-05-09T12:50:51;95581.72;;;15.44;89.95
13027;BME280;6580;42.680;23.324;2023-05-09T12:53:38;95575.81;;;15.49;92.08
13027;BME280;6580;42.680;23.324;2023-05-09T12:56:25;95566.91;;;15.26;93.64
13027;BME280;6580;42.680;23.324;2023-05-09T12:59:19;95557.34;;;15.23;93.23
13027;BME280;6580;42.680;23.324;2023-05-09T13:02:06;95568.88;;;15.02;95.20
13027;BME280;6580;42.680;23.324;2023-05-09T13:05:05;95556.63;;;15.29;95.28
13027;BME280;6580;42.680;23.324;2023-05-09T13:07:54;95563.31;;;15.33;95.22
13027;BME280;6580;42.680;23.324;2023-05-09T13:10:41;95563.72;;;15.67;91.47
13027;BME280;6580;42.680;23.324;2023-05-09T13:13:26;95550.78;;;15.48;93.21
13027;BME280;6580;42.680;23.324;2023-05-09T13:16:13;95542.19;;;15.30;96.13
13027;BME280;6580;42.680;23.324;2023-05-09T13:18:59;95546.94;;;15.65;93.05
13027;BME280;6580;42.680;23.324;2023-05-09T13:21:47;95538.78;;;15.81;92.33
13027;BME280;6580;42.680;23.324;2023-05-09T13:24:32;95545.38;;;15.56;91.51
13027;BME280;6580;42.680;23.324;2023-05-09T13:27:18;95545.06;;;15.51;92.98
13027;BME280;6580;42.680;23.324;2023-05-09T13:30:09;95544.91;;;15.53;92.72
13027;BME280;6580;42.680;23.324;2023-05-09T13:32:56;95552.34;;;15.43;94.34
13027;BME280;6580;42.680;23.324;2023-05-09T13:35:42;95551.25;;;15.29;95.38
13027;BME280;6580;42.680;23.324;2023-05-09T13:38:27;95543.34;;;15.36;94.42
13027;BME280;6580;42.680;23.324;2023-05-09T13:41:14;95544.53;;;15.03;97.78
13027;BME280;6580;42.680;23.324;2023-05-09T13:44:03;95549.19;;;14.87;100.00
13027;BME280;6580;42.680;23.324;2023-05-09T13:46:49;95544.16;;;14.84;100.00
13027;BME280;6580;42.680;23.324;2023-05-09T13:49:36;95552.38;;;14.82;100.00
13027;BME280;6580;42.680;23.324;2023-05-09T13:52:21;95541.81;;;14.81;100.00
13027;BME280;6580;42.680;23.324;2023-05-09T13:55:07;95551.63;;;14.66;100.00
13027;BME280;6580;42.680;23.324;2023-05-09T13:57:53;95555.19;;;14.89;99.48
13027;BME280;6580;42.680;23.324;2023-05-09T14:00:38;95547.09;;;14.97;97.59
13027;BME280;6580;42.680;23.324;2023-05-09T14:03:24;95552.56;;;14.81;100.00
13027;BME280;6580;42.680;23.324;2023-05-09T14:06:12;95558.75;;;14.81;99.73
13027;BME280;6580;42.680;23.324;2023-05-09T14:08:57;95548.19;;;14.80;99.82
13027;BME280;6580;42.680;23.324;2023-05-09T14:11:42;95543.84;;;14.79;99.71
13027;BME280;6580;42.680;23.324;2023-05-09T14:14:30;95560.75;;;14.41;100.00
13027;BME280;6580;42.680;23.324;2023-05-09T14:17:15;95547.81;;;14.14;100.00
13027;BME280;6580;42.680;23.324;2023-05-09T14:20:01;95541.53;;;14.37;100.00
13027;BME280;6580;42.680;23.324;2023-05-09T14:22:49;95542.13;;;14.55;100.00
13027;BME280;6580;42.680;23.324;2023-05-09T14:25:39;95557.66;;;14.60;100.00
13027;BME280;6580;42.680;23.324;2023-05-09T14:28:24;95555.09;;;14.36;100.00
13027;BME280;6580;42.680;23.324;2023-05-09T14:31:10;95558.13;;;14.25;100.00
13027;BME280;6580;42.680;23.324;2023-05-09T14:33:56;95541.72;;;14.36;100.00
13027;BME280;6580;42.680;23.324;2023-05-09T14:36:43;95553.78;;;14.32;100.00
13027;BME280;6580;42.680;23.324;2023-05-09T14:39:30;95557.66;;;14.06;100.00
13027;BME280;6580;42.680;23.324;2023-05-09T14:42:15;95552.78;;;14.09;100.00
13027;BME280;6580;42.680;23.324;2023-05-09T14:45:03;95537.03;;;14.22;100.00
13027;BME280;6580;42.680;23.324;2023-05-09T14:47:49;95547.34;;;14.41;100.00